Neptune Ithaki — SVBS3 — position and weather

sailwx.info

Track history (hours):
 
Tides and Currents Weather Stations Pressure Air Temp Water Temp Dewpoint Dewpoint Depression Visibility Wind Speed Wind Dir Waves Ship Positions

Neptune Ithaki

Last reported at 2018-Jun-15 13:30 UTC. Time now 2018-Jun-20 18:47 UTC.
Position N 39°51' E 025°52'.

Length 169 m; draft 8.3 m.

Type: Cargo ship. MMSI: 241242000.

Date/timePositionNaut miles runAvg speedWind from/ knotsBaromVisibWave heightAir tempDewpointWater temp
2018-Jun-15 13:30N 39°51' E 025°52'714.9
2018-Jun-15 13:01N 39°44' E 025°48'18014.9
2018-Jun-15 00:57N 37°09' E 023°52'715.0
2018-Jun-15 00:31N 37°04' E 023°47'1014.9
2018-Jun-14 23:48N 36°55' E 023°40'1714.9
2018-Jun-14 22:40N 36°41' E 023°29'715.1
2018-Jun-14 22:12N 36°35' E 023°24'1414.5
2018-Jun-14 21:13N 36°23' E 023°13'414.6
2018-Jun-14 20:56N 36°23' E 023°08'67514.9
2018-Jun-12 23:28N 44°37' E 013°02'816.2
2018-Jun-12 23:00N 44°44' E 012°58'816.1
2018-Jun-12 22:30N 44°50' E 012°51'815.8
2018-Jun-12 22:00N 44°57' E 012°47'816.2
2018-Jun-12 21:30N 45°05' E 012°43'816.1
2018-Jun-12 21:00N 45°10' E 012°34'815.3
2018-Jun-12 20:30N 45°16' E 012°28'714.1
2018-Jun-12 20:00N 45°20' E 012°20'4 8.2
2018-Jun-12 19:30N 45°23' E 012°16'3 4.8
2018-Jun-12 18:58N 45°26' E 012°15'0 0.0
2018-Jun-12 18:28N 45°26' E 012°15'0 0.0
2018-Jun-12 17:58N 45°26' E 012°15'0 0.0
2018-Jun-12 17:28N 45°26' E 012°15'0 0.0
2018-Jun-12 16:58N 45°26' E 012°15'0 0.0
2018-Jun-12 16:28N 45°26' E 012°15'0 0.0
2018-Jun-12 15:58N 45°26' E 012°15'0 0.0
2018-Jun-12 15:28N 45°26' E 012°15'0 0.0
2018-Jun-12 14:58N 45°26' E 012°15'0 0.0
2018-Jun-12 14:28N 45°26' E 012°15'0 0.0
2018-Jun-12 13:58N 45°26' E 012°15'0 0.0
2018-Jun-12 13:28N 45°26' E 012°15'0 0.0
2018-Jun-12 12:58N 45°26' E 012°15'0 0.0
2018-Jun-12 12:28N 45°26' E 012°15'0 0.0
2018-Jun-12 11:58N 45°26' E 012°15'0 0.0
2018-Jun-12 11:28N 45°26' E 012°15'0 0.0
2018-Jun-12 10:58N 45°26' E 012°15'0 0.0
2018-Jun-12 10:28N 45°26' E 012°15'0 0.0
2018-Jun-12 09:58N 45°26' E 012°15'0 0.5
2018-Jun-12 09:30N 45°25' E 012°16'4 7.9
2018-Jun-12 08:59N 45°21' E 012°15'510.6
2018-Jun-12 08:30N 45°20' E 012°22'1 2.7
2018-Jun-12 07:59N 45°19' E 012°24'2 5.0
2018-Jun-12 07:30N 45°18' E 012°27'5 9.9
2018-Jun-12 06:59N 45°17' E 012°34'5 9.8
2018-Jun-12 06:30N 45°19' E 012°41'510.0
2018-Jun-12 06:00N 45°21' E 012°47'5 9.9
2018-Jun-12 05:30N 45°23' E 012°53'5 9.9
2018-Jun-12 05:00N 45°26' E 012°59'5 9.9
2018-Jun-12 04:30N 45°28' E 013°05'5 9.9
2018-Jun-12 04:00N 45°31' E 013°11'510.0
2018-Jun-12 03:30N 45°33' E 013°18'510.1
2018-Jun-12 03:00N 45°35' E 013°24'510.0
2018-Jun-12 02:30N 45°37' E 013°31'5 9.2
2018-Jun-12 02:00N 45°37' E 013°38'5 9.7
2018-Jun-12 01:30N 45°33' E 013°43'1 1.9
2018-Jun-12 01:00N 45°33' E 013°44'0 0.0
2018-Jun-12 00:22N 45°33' E 013°44'0 0.0
2018-Jun-11 23:58N 45°33' E 013°44'0 0.0
2018-Jun-11 23:28N 45°33' E 013°44'0 0.0
2018-Jun-11 22:46N 45°33' E 013°44'0 0.0
2018-Jun-11 22:28N 45°33' E 013°44'0 0.0
2018-Jun-11 21:58N 45°33' E 013°44'0 0.0
2018-Jun-11 21:28N 45°33' E 013°44'0 0.0
2018-Jun-11 20:55N 45°33' E 013°44'0 0.0
2018-Jun-11 20:28N 45°33' E 013°44'0 0.0
2018-Jun-11 19:46N 45°33' E 013°44'0 0.0
2018-Jun-11 19:28N 45°33' E 013°44'0 0.0
2018-Jun-11 18:46N 45°33' E 013°44'0 0.0
2018-Jun-11 18:28N 45°33' E 013°44'0 0.0
2018-Jun-11 17:58N 45°33' E 013°44'0 0.0
2018-Jun-11 17:28N 45°33' E 013°44'0 0.0
2018-Jun-11 16:58N 45°33' E 013°44'0 0.0
2018-Jun-11 16:25N 45°33' E 013°44'0 0.0
2018-Jun-11 15:58N 45°33' E 013°44'0 0.0
2018-Jun-11 15:28N 45°33' E 013°44'0 0.0
2018-Jun-11 14:55N 45°33' E 013°44'0 0.0
2018-Jun-11 14:28N 45°33' E 013°44'0 0.0
2018-Jun-11 13:55N 45°33' E 013°44'0 0.0
2018-Jun-11 13:19N 45°33' E 013°44'0 0.0
2018-Jun-11 12:52N 45°33' E 013°44'0 0.0
2018-Jun-11 12:25N 45°33' E 013°44'0 0.0
2018-Jun-11 11:58N 45°33' E 013°44'0 0.0
2018-Jun-11 11:28N 45°33' E 013°44'0 0.0
2018-Jun-11 10:58N 45°33' E 013°44'0 0.0
2018-Jun-11 10:28N 45°33' E 013°44'0 0.0
2018-Jun-11 09:58N 45°33' E 013°44'0 0.0
2018-Jun-11 09:16N 45°33' E 013°44'0 0.0
2018-Jun-11 08:58N 45°33' E 013°44'0 0.0
2018-Jun-11 08:28N 45°33' E 013°44'0 0.0
2018-Jun-11 07:58N 45°33' E 013°44'0 0.0
2018-Jun-11 07:25N 45°33' E 013°44'0 0.0
2018-Jun-11 06:58N 45°33' E 013°44'0 0.0
2018-Jun-11 06:25N 45°33' E 013°44'0 0.0
2018-Jun-11 05:55N 45°33' E 013°44'0 0.0
2018-Jun-11 05:28N 45°33' E 013°44'0 0.0
2018-Jun-11 04:55N 45°33' E 013°44'0 0.0
2018-Jun-11 04:28N 45°33' E 013°44'0 0.0
2018-Jun-11 03:55N 45°33' E 013°44'0 0.0
2018-Jun-11 03:28N 45°33' E 013°44'0 0.0
2018-Jun-11 02:58N 45°33' E 013°44'0 0.0
2018-Jun-11 02:28N 45°33' E 013°44'0 0.0
2018-Jun-11 01:58N 45°33' E 013°44'0 0.0
2018-Jun-11 01:28N 45°33' E 013°44'0 0.0
2018-Jun-11 00:58N 45°33' E 013°44'0 0.0
2018-Jun-11 00:28N 45°33' E 013°44'0 0.0
2018-Jun-10 23:58N 45°33' E 013°44'0 0.0
2018-Jun-10 23:28N 45°33' E 013°44'0 0.0
2018-Jun-10 22:58N 45°33' E 013°44'0 0.0
2018-Jun-10 22:28N 45°33' E 013°44'0 0.0
2018-Jun-10 21:58N 45°33' E 013°44'0 0.0
2018-Jun-10 21:28N 45°33' E 013°44'0 0.0
2018-Jun-10 20:55N 45°33' E 013°44'0 0.0
2018-Jun-10 20:25N 45°33' E 013°44'0 0.0
2018-Jun-10 19:55N 45°33' E 013°44'0 0.1
2018-Jun-10 19:28N 45°33' E 013°44'0 0.1
2018-Jun-10 18:52N 45°33' E 013°44'0 0.0
2018-Jun-10 18:28N 45°33' E 013°44'0 0.0
2018-Jun-10 17:58N 45°33' E 013°44'0 0.0
2018-Jun-10 17:28N 45°33' E 013°44'0 0.0
2018-Jun-10 16:55N 45°33' E 013°44'0 0.0
2018-Jun-10 16:25N 45°33' E 013°44'0 0.0
2018-Jun-10 15:55N 45°33' E 013°44'0 0.0
2018-Jun-10 15:28N 45°33' E 013°44'0 0.0
2018-Jun-10 14:55N 45°33' E 013°44'0 0.0
2018-Jun-10 14:28N 45°33' E 013°44'0 0.0
2018-Jun-10 13:28N 45°33' E 013°44'0 0.0
2018-Jun-10 12:58N 45°33' E 013°44'0 0.0
2018-Jun-10 12:28N 45°33' E 013°44'0 0.0
2018-Jun-10 11:58N 45°33' E 013°44'0 0.0
2018-Jun-10 11:28N 45°33' E 013°44'0 0.0
2018-Jun-10 10:58N 45°33' E 013°44'0 0.0
2018-Jun-10 10:28N 45°33' E 013°44'0 0.0
2018-Jun-10 09:58N 45°33' E 013°44'0 0.0
2018-Jun-10 09:28N 45°33' E 013°44'0 0.0
2018-Jun-10 08:58N 45°33' E 013°44'0 0.0
2018-Jun-10 08:28N 45°33' E 013°44'0 0.0
2018-Jun-10 07:58N 45°33' E 013°44'0 0.0
2018-Jun-10 07:28N 45°33' E 013°44'0 0.0
2018-Jun-10 06:58N 45°33' E 013°44'0 0.0
2018-Jun-10 06:28N 45°33' E 013°44'0 0.0
2018-Jun-10 05:58N 45°33' E 013°44'0 0.0
2018-Jun-10 05:28N 45°33' E 013°44'0 0.0
2018-Jun-10 04:58N 45°33' E 013°44'0 0.0
2018-Jun-10 04:28N 45°33' E 013°44'0 0.0
2018-Jun-10 03:58N 45°33' E 013°44'0 0.0
2018-Jun-10 03:28N 45°33' E 013°44'0 0.0
2018-Jun-10 02:58N 45°33' E 013°44'0 0.0
2018-Jun-10 02:25N 45°33' E 013°44'0 0.0
2018-Jun-10 01:58N 45°33' E 013°44'0 0.0
2018-Jun-10 01:28N 45°33' E 013°44'0 0.0
2018-Jun-10 00:58N 45°33' E 013°44'0 0.0
2018-Jun-10 00:28N 45°33' E 013°44'0 0.0
2018-Jun-09 23:58N 45°33' E 013°44'0 0.0
2018-Jun-09 23:28N 45°33' E 013°44'0 0.0
2018-Jun-09 22:58N 45°33' E 013°44'0 0.0
2018-Jun-09 22:25N 45°33' E 013°44'0 0.0
2018-Jun-09 21:58N 45°33' E 013°44'0 0.0
2018-Jun-09 21:28N 45°33' E 013°44'0 0.0
2018-Jun-09 20:58N 45°33' E 013°44'0 0.0
2018-Jun-09 20:28N 45°33' E 013°44'0 0.0
2018-Jun-09 19:52N 45°33' E 013°44'0 0.0
2018-Jun-09 19:28N 45°33' E 013°44'0 0.0
2018-Jun-09 18:58N 45°33' E 013°44'0 0.0
2018-Jun-09 18:28N 45°33' E 013°44'0 0.0
2018-Jun-09 17:58N 45°33' E 013°44'0 0.0
2018-Jun-09 17:25N 45°33' E 013°44'0 0.0
2018-Jun-09 16:55N 45°33' E 013°44'0 0.0
2018-Jun-09 16:25N 45°33' E 013°44'0 0.0
2018-Jun-09 15:58N 45°33' E 013°44'0 0.0
2018-Jun-09 15:28N 45°33' E 013°44'0 0.0
2018-Jun-09 14:28N 45°33' E 013°44'0 0.0
2018-Jun-09 13:58N 45°33' E 013°44'0 0.0
2018-Jun-09 13:28N 45°33' E 013°44'0 0.0
2018-Jun-09 12:58N 45°33' E 013°44'0 0.0
2018-Jun-09 12:28N 45°33' E 013°44'0 0.0
2018-Jun-09 11:55N 45°33' E 013°44'0 0.0
2018-Jun-09 11:28N 45°33' E 013°44'0 0.0
2018-Jun-09 10:55N 45°33' E 013°44'0 0.0
2018-Jun-09 10:28N 45°33' E 013°44'0 0.0
2018-Jun-09 09:58N 45°33' E 013°44'0 0.0
2018-Jun-09 09:28N 45°33' E 013°44'0 0.0
2018-Jun-09 08:58N 45°33' E 013°44'0 0.0
2018-Jun-09 08:28N 45°33' E 013°44'0 0.0
2018-Jun-09 07:58N 45°33' E 013°44'0 0.0
2018-Jun-09 07:28N 45°33' E 013°44'0 0.0
2018-Jun-09 06:58N 45°33' E 013°44'0 0.0
2018-Jun-09 06:25N 45°33' E 013°44'0 0.0
2018-Jun-09 05:58N 45°33' E 013°44'0 0.0
2018-Jun-09 05:28N 45°33' E 013°44'0 0.0
2018-Jun-09 04:58N 45°33' E 013°44'0 0.0
2018-Jun-09 04:28N 45°33' E 013°44'0 0.0
2018-Jun-09 03:58N 45°33' E 013°44'0 0.0
2018-Jun-09 03:16N 45°33' E 013°44'0 0.0
2018-Jun-09 02:58N 45°33' E 013°44'0 0.0
2018-Jun-09 02:28N 45°33' E 013°44'0 0.0
2018-Jun-09 01:52N 45°33' E 013°44'0 0.0
2018-Jun-09 01:28N 45°33' E 013°44'0 0.0
2018-Jun-09 00:55N 45°33' E 013°44'0 0.0
2018-Jun-09 00:28N 45°33' E 013°44'0 0.0
2018-Jun-08 23:58N 45°33' E 013°44'0 0.0
2018-Jun-08 23:16N 45°33' E 013°44'0 0.0
2018-Jun-08 22:58N 45°33' E 013°44'0 0.0
2018-Jun-08 22:25N 45°33' E 013°44'0 0.0
2018-Jun-08 21:55N 45°33' E 013°44'0 0.0
2018-Jun-08 21:28N 45°33' E 013°44'0 0.0
2018-Jun-08 20:52N 45°33' E 013°44'0 0.0
2018-Jun-08 20:22N 45°33' E 013°44'0 0.0
2018-Jun-08 19:55N 45°33' E 013°44'0 0.0
2018-Jun-08 19:22N 45°33' E 013°44'0 0.0
2018-Jun-08 18:58N 45°33' E 013°44'0 0.0
2018-Jun-08 18:28N 45°33' E 013°44'0 0.0
2018-Jun-08 17:58N 45°33' E 013°44'0 0.0
2018-Jun-08 17:28N 45°33' E 013°44'0 0.0
2018-Jun-08 16:58N 45°33' E 013°44'0 0.0
2018-Jun-08 16:28N 45°33' E 013°44'1 2.4
2018-Jun-08 16:00N 45°33' E 013°43'4 8.5
2018-Jun-08 15:30N 45°34' E 013°37'815.5
2018-Jun-08 15:00N 45°32' E 013°26'917.3
2018-Jun-08 14:30N 45°26' E 013°17'815.6
2018-Jun-08 14:00N 45°19' E 013°14'918.1
2018-Jun-08 13:30N 45°10' E 013°17'918.0
2018-Jun-08 13:00N 45°02' E 013°22'917.7
2018-Jun-08 12:30N 44°54' E 013°28'917.4
2018-Jun-08 12:00N 44°47' E 013°34'917.0
2018-Jun-08 11:30N 44°39' E 013°40'917.2
2018-Jun-08 11:00N 44°32' E 013°46'917.2
2018-Jun-08 10:30N 44°24' E 013°52'815.7
2018-Jun-08 09:59N 44°17' E 013°58'2215.2
2018-Jun-08 08:34N 43°60' E 014°16'59914.2
2018-Jun-06 14:20N 37°06' E 023°46'515.9
2018-Jun-06 14:00N 37°10' E 023°50'816.0
2018-Jun-06 13:30N 37°17' E 023°55'816.2
2018-Jun-06 13:00N 37°24' E 024°00'916.4
2018-Jun-06 12:27N 37°31' E 024°06'2216.2
2018-Jun-06 11:06N 37°49' E 024°23'6816.0
2018-Jun-06 06:52N 38°47' E 025°07'8815.4
2018-Jun-06 01:09N 40°01' E 026°09'3313.5
2018-Jun-05 22:44N 40°23' E 026°41'310.4
2018-Jun-05 22:27N 40°26' E 026°43'512.0
2018-Jun-05 22:01N 40°28' E 026°49'  
Track history (hours):
 
Tides and Currents Weather Stations Pressure Air Temp Water Temp Dewpoint Dewpoint Depression Visibility Wind Speed Wind Dir Waves Ship Positions

Neptune Ithaki

Last reported at 2018-Jun-15 13:30 UTC. Time now 2018-Jun-20 18:47 UTC.
Position N 39°51' E 025°52'.

Length 169 m; draft 8.3 m.

Type: Cargo ship. MMSI: 241242000.

Date/timePositionNaut miles runAvg speedWind from/ knotsBaromVisibWave heightAir tempDewpointWater temp
2018-Jun-15 13:30N 39°51' E 025°52'714.9
2018-Jun-15 13:01N 39°44' E 025°48'18014.9
2018-Jun-15 00:57N 37°09' E 023°52'715.0
2018-Jun-15 00:31N 37°04' E 023°47'1014.9
2018-Jun-14 23:48N 36°55' E 023°40'1714.9
2018-Jun-14 22:40N 36°41' E 023°29'715.1
2018-Jun-14 22:12N 36°35' E 023°24'1414.5
2018-Jun-14 21:13N 36°23' E 023°13'414.6
2018-Jun-14 20:56N 36°23' E 023°08'67514.9
2018-Jun-12 23:28N 44°37' E 013°02'816.2
2018-Jun-12 23:00N 44°44' E 012°58'816.1
2018-Jun-12 22:30N 44°50' E 012°51'815.8
2018-Jun-12 22:00N 44°57' E 012°47'816.2
2018-Jun-12 21:30N 45°05' E 012°43'816.1
2018-Jun-12 21:00N 45°10' E 012°34'815.3
2018-Jun-12 20:30N 45°16' E 012°28'714.1
2018-Jun-12 20:00N 45°20' E 012°20'4 8.2
2018-Jun-12 19:30N 45°23' E 012°16'3 4.8
2018-Jun-12 18:58N 45°26' E 012°15'0 0.0
2018-Jun-12 18:28N 45°26' E 012°15'0 0.0
2018-Jun-12 17:58N 45°26' E 012°15'0 0.0
2018-Jun-12 17:28N 45°26' E 012°15'0 0.0
2018-Jun-12 16:58N 45°26' E 012°15'0 0.0
2018-Jun-12 16:28N 45°26' E 012°15'0 0.0
2018-Jun-12 15:58N 45°26' E 012°15'0 0.0
2018-Jun-12 15:28N 45°26' E 012°15'0 0.0
2018-Jun-12 14:58N 45°26' E 012°15'0 0.0
2018-Jun-12 14:28N 45°26' E 012°15'0 0.0
2018-Jun-12 13:58N 45°26' E 012°15'0 0.0
2018-Jun-12 13:28N 45°26' E 012°15'0 0.0
2018-Jun-12 12:58N 45°26' E 012°15'0 0.0
2018-Jun-12 12:28N 45°26' E 012°15'0 0.0
2018-Jun-12 11:58N 45°26' E 012°15'0 0.0
2018-Jun-12 11:28N 45°26' E 012°15'0 0.0
2018-Jun-12 10:58N 45°26' E 012°15'0 0.0
2018-Jun-12 10:28N 45°26' E 012°15'0 0.0
2018-Jun-12 09:58N 45°26' E 012°15'0 0.5
2018-Jun-12 09:30N 45°25' E 012°16'4 7.9
2018-Jun-12 08:59N 45°21' E 012°15'510.6
2018-Jun-12 08:30N 45°20' E 012°22'1 2.7
2018-Jun-12 07:59N 45°19' E 012°24'2 5.0
2018-Jun-12 07:30N 45°18' E 012°27'5 9.9
2018-Jun-12 06:59N 45°17' E 012°34'5 9.8
2018-Jun-12 06:30N 45°19' E 012°41'510.0
2018-Jun-12 06:00N 45°21' E 012°47'5 9.9
2018-Jun-12 05:30N 45°23' E 012°53'5 9.9
2018-Jun-12 05:00N 45°26' E 012°59'5 9.9
2018-Jun-12 04:30N 45°28' E 013°05'5 9.9
2018-Jun-12 04:00N 45°31' E 013°11'510.0
2018-Jun-12 03:30N 45°33' E 013°18'510.1
2018-Jun-12 03:00N 45°35' E 013°24'510.0
2018-Jun-12 02:30N 45°37' E 013°31'5 9.2
2018-Jun-12 02:00N 45°37' E 013°38'5 9.7
2018-Jun-12 01:30N 45°33' E 013°43'1 1.9
2018-Jun-12 01:00N 45°33' E 013°44'0 0.0
2018-Jun-12 00:22N 45°33' E 013°44'0 0.0
2018-Jun-11 23:58N 45°33' E 013°44'0 0.0
2018-Jun-11 23:28N 45°33' E 013°44'0 0.0
2018-Jun-11 22:46N 45°33' E 013°44'0 0.0
2018-Jun-11 22:28N 45°33' E 013°44'0 0.0
2018-Jun-11 21:58N 45°33' E 013°44'0 0.0
2018-Jun-11 21:28N 45°33' E 013°44'0 0.0
2018-Jun-11 20:55N 45°33' E 013°44'0 0.0
2018-Jun-11 20:28N 45°33' E 013°44'0 0.0
2018-Jun-11 19:46N 45°33' E 013°44'0 0.0
2018-Jun-11 19:28N 45°33' E 013°44'0 0.0
2018-Jun-11 18:46N 45°33' E 013°44'0 0.0
2018-Jun-11 18:28N 45°33' E 013°44'0 0.0
2018-Jun-11 17:58N 45°33' E 013°44'0 0.0
2018-Jun-11 17:28N 45°33' E 013°44'0 0.0
2018-Jun-11 16:58N 45°33' E 013°44'0 0.0
2018-Jun-11 16:25N 45°33' E 013°44'0 0.0
2018-Jun-11 15:58N 45°33' E 013°44'0 0.0
2018-Jun-11 15:28N 45°33' E 013°44'0 0.0
2018-Jun-11 14:55N 45°33' E 013°44'0 0.0
2018-Jun-11 14:28N 45°33' E 013°44'0 0.0
2018-Jun-11 13:55N 45°33' E 013°44'0 0.0
2018-Jun-11 13:19N 45°33' E 013°44'0 0.0
2018-Jun-11 12:52N 45°33' E 013°44'0 0.0
2018-Jun-11 12:25N 45°33' E 013°44'0 0.0
2018-Jun-11 11:58N 45°33' E 013°44'0 0.0
2018-Jun-11 11:28N 45°33' E 013°44'0 0.0
2018-Jun-11 10:58N 45°33' E 013°44'0 0.0
2018-Jun-11 10:28N 45°33' E 013°44'0 0.0
2018-Jun-11 09:58N 45°33' E 013°44'0 0.0
2018-Jun-11 09:16N 45°33' E 013°44'0 0.0
2018-Jun-11 08:58N 45°33' E 013°44'0 0.0
2018-Jun-11 08:28N 45°33' E 013°44'0 0.0
2018-Jun-11 07:58N 45°33' E 013°44'0 0.0
2018-Jun-11 07:25N 45°33' E 013°44'0 0.0
2018-Jun-11 06:58N 45°33' E 013°44'0 0.0
2018-Jun-11 06:25N 45°33' E 013°44'0 0.0
2018-Jun-11 05:55N 45°33' E 013°44'0 0.0
2018-Jun-11 05:28N 45°33' E 013°44'0 0.0
2018-Jun-11 04:55N 45°33' E 013°44'0 0.0
2018-Jun-11 04:28N 45°33' E 013°44'0 0.0
2018-Jun-11 03:55N 45°33' E 013°44'0 0.0
2018-Jun-11 03:28N 45°33' E 013°44'0 0.0
2018-Jun-11 02:58N 45°33' E 013°44'0 0.0
2018-Jun-11 02:28N 45°33' E 013°44'0 0.0
2018-Jun-11 01:58N 45°33' E 013°44'0 0.0
2018-Jun-11 01:28N 45°33' E 013°44'0 0.0
2018-Jun-11 00:58N 45°33' E 013°44'0 0.0
2018-Jun-11 00:28N 45°33' E 013°44'0 0.0
2018-Jun-10 23:58N 45°33' E 013°44'0 0.0
2018-Jun-10 23:28N 45°33' E 013°44'0 0.0
2018-Jun-10 22:58N 45°33' E 013°44'0 0.0
2018-Jun-10 22:28N 45°33' E 013°44'0 0.0
2018-Jun-10 21:58N 45°33' E 013°44'0 0.0
2018-Jun-10 21:28N 45°33' E 013°44'0 0.0
2018-Jun-10 20:55N 45°33' E 013°44'0 0.0
2018-Jun-10 20:25N 45°33' E 013°44'0 0.0
2018-Jun-10 19:55N 45°33' E 013°44'0 0.1
2018-Jun-10 19:28N 45°33' E 013°44'0 0.1
2018-Jun-10 18:52N 45°33' E 013°44'0 0.0
2018-Jun-10 18:28N 45°33' E 013°44'0 0.0
2018-Jun-10 17:58N 45°33' E 013°44'0 0.0
2018-Jun-10 17:28N 45°33' E 013°44'0 0.0
2018-Jun-10 16:55N 45°33' E 013°44'0 0.0
2018-Jun-10 16:25N 45°33' E 013°44'0 0.0
2018-Jun-10 15:55N 45°33' E 013°44'0 0.0
2018-Jun-10 15:28N 45°33' E 013°44'0 0.0
2018-Jun-10 14:55N 45°33' E 013°44'0 0.0
2018-Jun-10 14:28N 45°33' E 013°44'0 0.0
2018-Jun-10 13:28N 45°33' E 013°44'0 0.0
2018-Jun-10 12:58N 45°33' E 013°44'0 0.0
2018-Jun-10 12:28N 45°33' E 013°44'0 0.0
2018-Jun-10 11:58N 45°33' E 013°44'0 0.0
2018-Jun-10 11:28N 45°33' E 013°44'0 0.0
2018-Jun-10 10:58N 45°33' E 013°44'0 0.0
2018-Jun-10 10:28N 45°33' E 013°44'0 0.0
2018-Jun-10 09:58N 45°33' E 013°44'0 0.0
2018-Jun-10 09:28N 45°33' E 013°44'0 0.0
2018-Jun-10 08:58N 45°33' E 013°44'0 0.0
2018-Jun-10 08:28N 45°33' E 013°44'0 0.0
2018-Jun-10 07:58N 45°33' E 013°44'0 0.0
2018-Jun-10 07:28N 45°33' E 013°44'0 0.0
2018-Jun-10 06:58N 45°33' E 013°44'0 0.0
2018-Jun-10 06:28N 45°33' E 013°44'0 0.0
2018-Jun-10 05:58N 45°33' E 013°44'0 0.0
2018-Jun-10 05:28N 45°33' E 013°44'0 0.0
2018-Jun-10 04:58N 45°33' E 013°44'0 0.0
2018-Jun-10 04:28N 45°33' E 013°44'0 0.0
2018-Jun-10 03:58N 45°33' E 013°44'0 0.0
2018-Jun-10 03:28N 45°33' E 013°44'0 0.0
2018-Jun-10 02:58N 45°33' E 013°44'0 0.0
2018-Jun-10 02:25N 45°33' E 013°44'0 0.0
2018-Jun-10 01:58N 45°33' E 013°44'0 0.0
2018-Jun-10 01:28N 45°33' E 013°44'0 0.0
2018-Jun-10 00:58N 45°33' E 013°44'0 0.0
2018-Jun-10 00:28N 45°33' E 013°44'0 0.0
2018-Jun-09 23:58N 45°33' E 013°44'0 0.0
2018-Jun-09 23:28N 45°33' E 013°44'0 0.0
2018-Jun-09 22:58N 45°33' E 013°44'0 0.0
2018-Jun-09 22:25N 45°33' E 013°44'0 0.0
2018-Jun-09 21:58N 45°33' E 013°44'0 0.0
2018-Jun-09 21:28N 45°33' E 013°44'0 0.0
2018-Jun-09 20:58N 45°33' E 013°44'0 0.0
2018-Jun-09 20:28N 45°33' E 013°44'0 0.0
2018-Jun-09 19:52N 45°33' E 013°44'0 0.0
2018-Jun-09 19:28N 45°33' E 013°44'0 0.0
2018-Jun-09 18:58N 45°33' E 013°44'0 0.0
2018-Jun-09 18:28N 45°33' E 013°44'0 0.0
2018-Jun-09 17:58N 45°33' E 013°44'0 0.0
2018-Jun-09 17:25N 45°33' E 013°44'0 0.0
2018-Jun-09 16:55N 45°33' E 013°44'0 0.0
2018-Jun-09 16:25N 45°33' E 013°44'0 0.0
2018-Jun-09 15:58N 45°33' E 013°44'0 0.0
2018-Jun-09 15:28N 45°33' E 013°44'0 0.0
2018-Jun-09 14:28N 45°33' E 013°44'0 0.0
2018-Jun-09 13:58N 45°33' E 013°44'0 0.0
2018-Jun-09 13:28N 45°33' E 013°44'0 0.0
2018-Jun-09 12:58N 45°33' E 013°44'0 0.0
2018-Jun-09 12:28N 45°33' E 013°44'0 0.0
2018-Jun-09 11:55N 45°33' E 013°44'0 0.0
2018-Jun-09 11:28N 45°33' E 013°44'0 0.0
2018-Jun-09 10:55N 45°33' E 013°44'0 0.0
2018-Jun-09 10:28N 45°33' E 013°44'0 0.0
2018-Jun-09 09:58N 45°33' E 013°44'0 0.0
2018-Jun-09 09:28N 45°33' E 013°44'0 0.0
2018-Jun-09 08:58N 45°33' E 013°44'0 0.0
2018-Jun-09 08:28N 45°33' E 013°44'0 0.0
2018-Jun-09 07:58N 45°33' E 013°44'0 0.0
2018-Jun-09 07:28N 45°33' E 013°44'0 0.0
2018-Jun-09 06:58N 45°33' E 013°44'0 0.0
2018-Jun-09 06:25N 45°33' E 013°44'0 0.0
2018-Jun-09 05:58N 45°33' E 013°44'0 0.0
2018-Jun-09 05:28N 45°33' E 013°44'0 0.0
2018-Jun-09 04:58N 45°33' E 013°44'0 0.0
2018-Jun-09 04:28N 45°33' E 013°44'0 0.0
2018-Jun-09 03:58N 45°33' E 013°44'0 0.0
2018-Jun-09 03:16N 45°33' E 013°44'0 0.0
2018-Jun-09 02:58N 45°33' E 013°44'0 0.0
2018-Jun-09 02:28N 45°33' E 013°44'0 0.0
2018-Jun-09 01:52N 45°33' E 013°44'0 0.0
2018-Jun-09 01:28N 45°33' E 013°44'0 0.0
2018-Jun-09 00:55N 45°33' E 013°44'0 0.0
2018-Jun-09 00:28N 45°33' E 013°44'0 0.0
2018-Jun-08 23:58N 45°33' E 013°44'0 0.0
2018-Jun-08 23:16N 45°33' E 013°44'0 0.0
2018-Jun-08 22:58N 45°33' E 013°44'0 0.0
2018-Jun-08 22:25N 45°33' E 013°44'0 0.0
2018-Jun-08 21:55N 45°33' E 013°44'0 0.0
2018-Jun-08 21:28N 45°33' E 013°44'0 0.0
2018-Jun-08 20:52N 45°33' E 013°44'0 0.0
2018-Jun-08 20:22N 45°33' E 013°44'0 0.0
2018-Jun-08 19:55N 45°33' E 013°44'0 0.0
2018-Jun-08 19:22N 45°33' E 013°44'0 0.0
2018-Jun-08 18:58N 45°33' E 013°44'0 0.0
2018-Jun-08 18:28N 45°33' E 013°44'0 0.0
2018-Jun-08 17:58N 45°33' E 013°44'0 0.0
2018-Jun-08 17:28N 45°33' E 013°44'0 0.0
2018-Jun-08 16:58N 45°33' E 013°44'0 0.0
2018-Jun-08 16:28N 45°33' E 013°44'1 2.4
2018-Jun-08 16:00N 45°33' E 013°43'4 8.5
2018-Jun-08 15:30N 45°34' E 013°37'815.5
2018-Jun-08 15:00N 45°32' E 013°26'917.3
2018-Jun-08 14:30N 45°26' E 013°17'815.6
2018-Jun-08 14:00N 45°19' E 013°14'918.1
2018-Jun-08 13:30N 45°10' E 013°17'918.0
2018-Jun-08 13:00N 45°02' E 013°22'917.7
2018-Jun-08 12:30N 44°54' E 013°28'917.4
2018-Jun-08 12:00N 44°47' E 013°34'917.0
2018-Jun-08 11:30N 44°39' E 013°40'917.2
2018-Jun-08 11:00N 44°32' E 013°46'917.2
2018-Jun-08 10:30N 44°24' E 013°52'815.7
2018-Jun-08 09:59N 44°17' E 013°58'2215.2
2018-Jun-08 08:34N 43°60' E 014°16'59914.2
2018-Jun-06 14:20N 37°06' E 023°46'515.9
2018-Jun-06 14:00N 37°10' E 023°50'816.0
2018-Jun-06 13:30N 37°17' E 023°55'816.2
2018-Jun-06 13:00N 37°24' E 024°00'916.4
2018-Jun-06 12:27N 37°31' E 024°06'2216.2
2018-Jun-06 11:06N 37°49' E 024°23'6816.0
2018-Jun-06 06:52N 38°47' E 025°07'8815.4
2018-Jun-06 01:09N 40°01' E 026°09'3313.5
2018-Jun-05 22:44N 40°23' E 026°41'310.4
2018-Jun-05 22:27N 40°26' E 026°43'512.0
2018-Jun-05 22:01N 40°28' E 026°49'  

Dump ship's entire track history